createdAt,value
2019-02-28T00:00:37.234Z,4.96
2019-02-28T00:03:11.369Z,4.92
2019-02-28T00:05:44.204Z,4.90
2019-02-28T00:08:16.918Z,4.89
2019-02-28T00:10:49.748Z,4.94
2019-02-28T00:13:22.604Z,4.93
2019-02-28T00:15:55.466Z,4.93
2019-02-28T00:18:28.302Z,4.96
2019-02-28T00:21:06.062Z,4.96
2019-02-28T00:23:36.120Z,4.98
2019-02-28T00:26:11.445Z,4.98
2019-02-28T00:28:43.688Z,5.01
2019-02-28T00:31:16.553Z,5.02
2019-02-28T00:33:49.392Z,5.03
2019-02-28T00:36:22.246Z,5.08
2019-02-28T00:38:55.110Z,5.07
2019-02-28T00:41:28.018Z,5.07
2019-02-28T00:44:00.774Z,5.04
2019-02-28T00:46:33.595Z,5.02
2019-02-28T00:49:06.364Z,5.01
2019-02-28T00:51:39.116Z,4.99
2019-02-28T00:54:12.002Z,4.98
2019-02-28T00:56:44.823Z,4.96
2019-02-28T00:59:17.642Z,4.92
2019-02-28T01:01:50.427Z,4.87
2019-02-28T01:04:23.248Z,4.83
2019-02-28T01:06:55.986Z,4.80
2019-02-28T01:09:30.238Z,4.79
2019-02-28T01:12:03.271Z,4.81
2019-02-28T01:14:36.672Z,4.77
2019-02-28T01:17:09.564Z,4.78
2019-02-28T01:19:42.424Z,4.76
2019-02-28T01:22:15.229Z,4.77
2019-02-28T01:24:48.079Z,4.75
2019-02-28T01:27:21.760Z,4.73
2019-02-28T01:29:54.694Z,4.71
2019-02-28T01:32:27.447Z,4.72
2019-02-28T01:35:00.276Z,4.71
2019-02-28T01:37:33.150Z,4.66
2019-02-28T01:40:06.134Z,4.61
2019-02-28T01:42:38.885Z,4.58
2019-02-28T01:45:11.669Z,4.57
2019-02-28T01:47:44.513Z,4.53
2019-02-28T01:50:17.337Z,4.47
2019-02-28T01:52:50.073Z,4.44
2019-02-28T01:55:22.995Z,4.41
2019-02-28T01:57:55.782Z,4.40
2019-02-28T02:00:31.522Z,4.40
2019-02-28T02:03:04.303Z,4.39
2019-02-28T02:05:37.011Z,4.46
2019-02-28T02:08:09.859Z,4.46
2019-02-28T02:10:42.706Z,4.50
2019-02-28T02:13:15.455Z,4.58
2019-02-28T02:15:51.110Z,4.64
2019-02-28T02:18:22.957Z,4.74
2019-02-28T02:20:57.396Z,4.79
2019-02-28T02:23:30.255Z,4.84
2019-02-28T02:26:03.093Z,4.85
2019-02-28T02:28:35.923Z,4.87
2019-02-28T02:31:09.233Z,4.92
2019-02-28T02:33:51.120Z,4.92
2019-02-28T02:36:19.592Z,4.97
2019-02-28T02:38:52.508Z,5.00
2019-02-28T02:41:25.373Z,4.99
2019-02-28T02:43:58.275Z,4.99
2019-02-28T02:46:31.137Z,4.95
2019-02-28T02:49:03.913Z,4.88
2019-02-28T02:51:36.738Z,4.86
2019-02-28T02:54:09.606Z,4.85
2019-02-28T02:56:42.467Z,4.83
2019-02-28T02:59:15.280Z,4.78
2019-02-28T03:01:48.030Z,4.75
2019-02-28T03:04:22.999Z,4.71
2019-02-28T03:06:55.244Z,4.68
2019-02-28T03:09:28.089Z,4.68
2019-02-28T03:12:00.810Z,4.63
2019-02-28T03:14:33.715Z,4.61
2019-02-28T03:17:11.483Z,4.58
2019-02-28T03:19:42.033Z,4.51
2019-02-28T03:22:14.953Z,4.49
2019-02-28T03:24:51.159Z,4.43
2019-02-28T03:27:22.481Z,4.41
2019-02-28T03:29:55.256Z,4.38
2019-02-28T03:32:39.262Z,4.33
2019-02-28T03:35:02.484Z,4.28
2019-02-28T03:37:35.345Z,4.25
2019-02-28T03:40:08.969Z,4.23
2019-02-28T03:42:41.980Z,4.21
2019-02-28T03:45:15.295Z,4.21
2019-02-28T03:47:48.489Z,4.21
2019-02-28T03:50:22.297Z,4.19
2019-02-28T03:52:56.038Z,4.16
2019-02-28T03:55:29.037Z,4.19
2019-02-28T03:58:05.412Z,4.19
2019-02-28T04:00:36.307Z,4.15
2019-02-28T04:03:09.347Z,4.13
2019-02-28T04:05:42.106Z,4.12
2019-02-28T04:08:14.940Z,4.13
2019-02-28T04:10:47.716Z,4.12
2019-02-28T04:13:20.548Z,4.11
2019-02-28T04:16:07.663Z,4.11
2019-02-28T04:18:27.829Z,4.09
2019-02-28T04:21:00.648Z,4.10
2019-02-28T04:23:36.095Z,4.08
2019-02-28T04:26:08.069Z,4.11
2019-02-28T04:28:42.389Z,4.10
2019-02-28T04:31:19.142Z,4.11
2019-02-28T04:33:49.817Z,4.10
2019-02-28T04:36:22.682Z,4.10
2019-02-28T04:38:55.538Z,4.09
2019-02-28T04:41:32.392Z,4.08
2019-02-28T04:44:02.795Z,4.10
2019-02-28T04:46:35.563Z,4.09
2019-02-28T04:49:08.407Z,4.00
2019-02-28T04:51:41.341Z,3.95
2019-02-28T04:54:14.090Z,3.95
2019-02-28T04:56:47.015Z,3.93
2019-02-28T04:59:19.869Z,3.91
2019-02-28T05:01:52.742Z,3.87
2019-02-28T05:04:27.053Z,3.84
2019-02-28T05:06:59.920Z,3.80
2019-02-28T05:09:32.739Z,3.76
2019-02-28T05:12:06.021Z,3.80
2019-02-28T05:14:38.996Z,3.89
2019-02-28T05:17:11.769Z,3.96
2019-02-28T05:19:44.525Z,4.00
2019-02-28T05:22:17.312Z,4.00
2019-02-28T05:24:50.340Z,3.98
2019-02-28T05:27:24.428Z,3.99
2019-02-28T05:29:58.767Z,4.00
2019-02-28T05:32:32.177Z,4.16
2019-02-28T05:35:06.540Z,4.47
2019-02-28T05:37:39.566Z,4.66
2019-02-28T05:40:13.398Z,4.73
2019-02-28T05:42:47.432Z,4.93
2019-02-28T05:45:20.432Z,4.89
2019-02-28T05:47:53.482Z,4.88
2019-02-28T05:50:26.309Z,4.99
2019-02-28T05:52:59.201Z,4.94
2019-02-28T05:55:32.555Z,4.97
2019-02-28T05:58:05.677Z,4.87
2019-02-28T06:00:38.632Z,4.89
2019-02-28T06:03:11.465Z,4.84
2019-02-28T06:05:46.399Z,4.67
2019-02-28T06:08:19.006Z,4.64
2019-02-28T06:10:52.005Z,4.65
2019-02-28T06:13:24.947Z,4.54
2019-02-28T06:15:57.624Z,4.50
2019-02-28T06:18:33.376Z,4.44
2019-02-28T06:21:05.077Z,4.44
2019-02-28T06:23:40.746Z,4.38
2019-02-28T06:26:12.415Z,4.40
2019-02-28T06:28:45.228Z,4.43
2019-02-28T06:31:18.072Z,4.44
2019-02-28T06:33:51.025Z,4.43
2019-02-28T06:36:25.732Z,4.52
2019-02-28T06:38:58.303Z,4.63
2019-02-28T06:41:31.115Z,4.70
2019-02-28T06:44:04.118Z,4.88
2019-02-28T06:46:45.879Z,5.04
2019-02-28T06:49:18.798Z,5.07
2019-02-28T06:51:52.003Z,5.15
2019-02-28T06:54:24.862Z,5.23
2019-02-28T06:56:57.626Z,5.34
2019-02-28T06:59:31.751Z,5.52
2019-02-28T07:02:04.681Z,5.57
2019-02-28T07:04:37.465Z,5.61
2019-02-28T07:07:13.507Z,5.89
2019-02-28T07:09:44.760Z,6.07
2019-02-28T07:12:17.543Z,6.15
2019-02-28T07:14:50.335Z,6.04
2019-02-28T07:17:24.800Z,6.15
2019-02-28T07:20:01.300Z,6.19
2019-02-28T07:22:32.080Z,6.25
2019-02-28T07:25:05.394Z,6.30
2019-02-28T07:27:38.140Z,6.38
2019-02-28T07:30:17.797Z,6.42
2019-02-28T07:32:49.488Z,6.52
2019-02-28T07:35:22.254Z,6.57
2019-02-28T07:37:54.980Z,6.67
2019-02-28T07:40:27.885Z,6.70
2019-02-28T07:43:00.581Z,6.72
2019-02-28T07:45:34.148Z,6.91
2019-02-28T07:48:07.075Z,7.05
2019-02-28T07:50:39.842Z,6.99
2019-02-28T07:53:12.641Z,7.00
2019-02-28T07:55:45.373Z,7.06
2019-02-28T07:58:18.261Z,7.11
2019-02-28T08:00:52.628Z,7.17
2019-02-28T08:03:25.878Z,7.24
2019-02-28T08:06:04.477Z,7.34
2019-02-28T08:08:33.378Z,7.43
2019-02-28T08:11:06.578Z,7.53
2019-02-28T08:13:39.415Z,7.67
2019-02-28T08:16:12.178Z,7.79
2019-02-28T08:18:45.035Z,7.93
2019-02-28T08:21:18.857Z,8.06
2019-02-28T08:23:51.894Z,8.19
2019-02-28T08:26:24.754Z,8.29
2019-02-28T08:28:57.587Z,8.39
2019-02-28T08:31:32.029Z,8.63
2019-02-28T08:34:05.916Z,8.66
2019-02-28T08:36:38.713Z,8.66
2019-02-28T08:39:16.124Z,8.84
2019-02-28T08:41:49.688Z,8.99
2019-02-28T08:44:23.977Z,9.05
2019-02-28T08:46:57.027Z,9.21
2019-02-28T08:49:29.964Z,9.68
2019-02-28T08:52:05.578Z,10.03
2019-02-28T08:54:37.376Z,10.55
2019-02-28T08:57:10.088Z,10.81
2019-02-28T08:59:42.893Z,11.23
2019-02-28T09:02:18.180Z,11.23
2019-02-28T09:04:51.057Z,11.45
2019-02-28T09:07:25.041Z,11.60
2019-02-28T09:09:57.798Z,11.98
2019-02-28T09:12:33.305Z,12.11
2019-02-28T09:15:05.897Z,12.25
2019-02-28T09:17:38.845Z,12.52
2019-02-28T09:20:12.091Z,12.36
2019-02-28T09:22:44.945Z,12.86
2019-02-28T09:25:21.378Z,12.84
2019-02-28T09:27:52.758Z,12.97
2019-02-28T09:30:32.428Z,12.85
2019-02-28T09:33:05.419Z,12.98
2019-02-28T09:35:38.134Z,13.29
2019-02-28T09:38:14.239Z,13.64
2019-02-28T09:40:49.103Z,13.97
2019-02-28T09:43:24.189Z,14.32
2019-02-28T09:45:59.963Z,14.07
2019-02-28T09:48:33.984Z,14.41
2019-02-28T09:51:07.563Z,14.24
2019-02-28T09:53:40.290Z,14.26
2019-02-28T09:56:13.056Z,14.78
2019-02-28T09:58:45.862Z,15.15
2019-02-28T10:01:21.297Z,14.91
2019-02-28T10:03:55.330Z,15.18
2019-02-28T10:06:27.704Z,15.14
2019-02-28T10:09:00.444Z,15.33
2019-02-28T10:11:34.776Z,15.82
2019-02-28T10:14:08.577Z,15.94
2019-02-28T10:16:41.393Z,15.94
2019-02-28T10:19:14.163Z,15.90
2019-02-28T10:21:51.833Z,16.13
2019-02-28T10:24:21.662Z,15.98
2019-02-28T10:26:54.445Z,16.14
2019-02-28T10:29:27.338Z,16.10
2019-02-28T10:32:00.194Z,16.32
2019-02-28T10:34:35.408Z,16.11
2019-02-28T10:37:08.370Z,16.31
2019-02-28T10:39:43.183Z,16.07
2019-02-28T10:42:16.596Z,16.22
2019-02-28T10:44:49.531Z,16.06
2019-02-28T10:47:27.890Z,15.91
2019-02-28T10:49:58.293Z,16.11
2019-02-28T10:52:31.592Z,15.68
2019-02-28T10:55:04.415Z,15.63
2019-02-28T10:57:40.128Z,15.80
2019-02-28T11:00:26.259Z,15.93
2019-02-28T11:03:00.428Z,15.91
2019-02-28T11:05:34.845Z,16.15
2019-02-28T11:08:14.815Z,16.34
2019-02-28T11:10:50.410Z,15.86
2019-02-28T11:13:24.881Z,15.80
2019-02-28T11:15:57.926Z,15.84
2019-02-28T11:18:31.735Z,15.60
2019-02-28T11:21:10.223Z,15.40
2019-02-28T11:23:46.529Z,15.52
2019-02-28T11:26:19.974Z,15.78
2019-02-28T11:28:52.823Z,15.78
2019-02-28T11:31:25.898Z,15.58
2019-02-28T11:33:59.048Z,15.32
2019-02-28T11:36:34.143Z,15.28
2019-02-28T11:39:09.001Z,15.30
2019-02-28T11:41:42.203Z,15.59
2019-02-28T11:44:15.066Z,15.26
2019-02-28T11:46:49.040Z,14.97
2019-02-28T11:49:22.170Z,15.12
2019-02-28T11:51:54.898Z,14.68
2019-02-28T11:54:29.596Z,14.75
2019-02-28T11:57:06.568Z,14.93
2019-02-28T11:59:38.180Z,15.18
2019-02-28T12:02:11.056Z,15.06
2019-02-28T12:04:44.223Z,15.27
2019-02-28T12:07:17.262Z,15.56
2019-02-28T12:09:51.453Z,15.33
2019-02-28T12:12:26.334Z,15.73
2019-02-28T12:15:02.548Z,15.65
2019-02-28T12:17:34.257Z,15.83
2019-02-28T12:20:09.287Z,15.56
2019-02-28T12:22:43.514Z,15.54
2019-02-28T12:25:19.100Z,15.47
2019-02-28T12:27:52.145Z,15.34
2019-02-28T12:30:27.391Z,15.19
2019-02-28T12:33:00.349Z,14.92
2019-02-28T12:35:39.223Z,14.95
2019-02-28T12:38:08.196Z,14.86
2019-02-28T12:40:42.464Z,15.00
2019-02-28T12:43:16.897Z,14.96
2019-02-28T12:45:49.799Z,15.14
2019-02-28T12:48:22.930Z,15.02
2019-02-28T12:50:56.016Z,14.78
2019-02-28T12:53:28.826Z,14.84
2019-02-28T12:56:01.810Z,14.84
2019-02-28T12:58:38.724Z,14.74
2019-02-28T13:01:09.627Z,14.69
2019-02-28T13:03:45.788Z,14.60
2019-02-28T13:06:23.425Z,14.53
2019-02-28T13:08:53.542Z,14.54
2019-02-28T13:11:26.644Z,14.59
2019-02-28T13:14:06.581Z,14.51
2019-02-28T13:16:40.039Z,14.41
2019-02-28T13:19:29.145Z,14.40
2019-02-28T13:22:04.087Z,14.39
2019-02-28T13:24:38.477Z,14.29
2019-02-28T13:27:13.830Z,14.42
2019-02-28T13:29:59.948Z,14.59
2019-02-28T13:32:33.835Z,14.72
2019-02-28T13:35:09.362Z,14.59
2019-02-28T13:37:44.759Z,14.62
2019-02-28T13:40:17.526Z,14.66
2019-02-28T13:42:50.706Z,14.37
2019-02-28T13:45:24.755Z,14.20
2019-02-28T13:47:57.692Z,14.16
2019-02-28T13:50:32.527Z,14.23
2019-02-28T13:53:17.263Z,13.95
2019-02-28T13:55:43.942Z,13.90
2019-02-28T13:58:17.746Z,13.55
2019-02-28T14:00:56.170Z,13.26
2019-02-28T14:03:31.073Z,13.19
2019-02-28T14:06:04.302Z,13.18
2019-02-28T14:08:37.210Z,13.15
2019-02-28T14:11:10.970Z,13.27
2019-02-28T14:13:44.000Z,13.31
2019-02-28T14:16:16.997Z,13.44
2019-02-28T14:18:49.897Z,13.69
2019-02-28T14:21:23.187Z,13.63
2019-02-28T14:23:56.801Z,13.41
2019-02-28T14:26:31.130Z,13.43
2019-02-28T14:29:07.052Z,13.20
2019-02-28T14:31:40.185Z,13.04
2019-02-28T14:34:13.186Z,12.90
2019-02-28T14:36:46.194Z,12.79
2019-02-28T14:39:19.144Z,12.53
2019-02-28T14:41:55.985Z,12.39
2019-02-28T14:44:31.635Z,12.21
2019-02-28T14:47:03.840Z,12.12
2019-02-28T14:49:36.988Z,12.04
2019-02-28T14:52:10.689Z,11.98
2019-02-28T14:54:46.335Z,11.94
2019-02-28T14:57:19.879Z,11.81
2019-02-28T14:59:53.260Z,11.81
2019-02-28T15:02:28.751Z,11.76
2019-02-28T15:05:08.694Z,11.75
2019-02-28T15:07:42.184Z,11.71
2019-02-28T15:10:18.815Z,11.68
2019-02-28T15:12:55.387Z,11.65
2019-02-28T15:15:36.463Z,11.59
2019-02-28T15:18:13.059Z,11.52
2019-02-28T15:20:45.640Z,11.44
2019-02-28T15:23:19.842Z,11.40
2019-02-28T15:25:58.883Z,11.31
2019-02-28T15:28:33.288Z,11.29
2019-02-28T15:31:08.638Z,11.26
2019-02-28T15:33:50.337Z,11.15
2019-02-28T15:36:48.062Z,11.06
2019-02-28T15:39:28.740Z,10.91
2019-02-28T15:42:09.044Z,10.86
2019-02-28T15:44:46.809Z,10.71
2019-02-28T15:47:34.592Z,10.62
2019-02-28T15:50:16.383Z,10.54
2019-02-28T15:52:46.752Z,10.46
2019-02-28T15:55:25.672Z,10.35
2019-02-28T15:58:05.796Z,10.27
2019-02-28T16:00:41.957Z,10.17
2019-02-28T16:03:17.391Z,10.04
2019-02-28T16:05:51.633Z,10.00
2019-02-28T16:08:24.595Z,9.92
2019-02-28T16:10:57.546Z,9.85
2019-02-28T16:13:30.583Z,9.77
2019-02-28T16:16:04.941Z,9.66
2019-02-28T16:18:40.813Z,9.56
2019-02-28T16:21:45.904Z,9.49
2019-02-28T16:24:24.212Z,9.33
2019-02-28T16:26:58.018Z,9.24
2019-02-28T16:29:31.502Z,9.19
2019-02-28T16:32:04.355Z,9.05
2019-02-28T16:34:42.389Z,8.93
2019-02-28T16:37:15.657Z,8.73
2019-02-28T16:39:49.815Z,8.73
2019-02-28T16:42:23.162Z,8.65
2019-02-28T16:44:56.350Z,8.50
2019-02-28T16:47:29.493Z,8.46
2019-02-28T16:50:04.500Z,8.33
2019-02-28T16:52:39.935Z,8.18
2019-02-28T16:55:12.187Z,8.04
2019-02-28T16:57:47.107Z,7.90
2019-02-28T17:00:20.287Z,7.90
2019-02-28T17:02:59.990Z,7.73
2019-02-28T17:05:33.021Z,7.60
2019-02-28T17:08:06.850Z,7.48
2019-02-28T17:10:43.423Z,7.39
2019-02-28T17:13:31.088Z,7.28
2019-02-28T17:16:20.565Z,7.21
2019-02-28T17:18:56.721Z,7.11
2019-02-28T17:21:29.020Z,6.98
2019-02-28T17:24:02.346Z,6.89
2019-02-28T17:26:57.758Z,6.79
2019-02-28T17:29:50.848Z,6.70
2019-02-28T17:32:30.733Z,6.56
2019-02-28T17:35:01.045Z,6.49
2019-02-28T17:37:34.809Z,6.44
2019-02-28T17:40:09.515Z,6.37
2019-02-28T17:42:43.116Z,6.35
2019-02-28T17:45:31.483Z,6.28
2019-02-28T17:48:56.299Z,6.22
2019-02-28T17:51:58.451Z,6.15
2019-02-28T17:55:19.426Z,6.06
2019-02-28T17:58:39.113Z,5.99
2019-02-28T18:02:06.166Z,5.97
2019-02-28T18:05:33.776Z,5.90
2019-02-28T18:08:44.477Z,5.87
2019-02-28T18:12:31.596Z,5.78
2019-02-28T18:15:50.652Z,5.75
2019-02-28T18:19:33.393Z,5.68
2019-02-28T18:23:14.678Z,5.64
2019-02-28T18:27:19.966Z,5.61
2019-02-28T18:30:58.818Z,5.55
2019-02-28T18:33:34.180Z,5.42
2019-02-28T18:36:12.294Z,5.32
2019-02-28T18:38:52.696Z,5.33
2019-02-28T18:41:31.811Z,5.30
2019-02-28T18:44:19.906Z,5.25
2019-02-28T18:47:02.935Z,5.22
2019-02-28T18:49:38.636Z,5.18
2019-02-28T18:53:09.626Z,5.11
2019-02-28T18:56:08.952Z,5.09
2019-02-28T18:59:05.335Z,5.11
2019-02-28T19:02:13.637Z,5.09
2019-02-28T19:04:56.101Z,5.14
2019-02-28T19:08:58.397Z,5.17
2019-02-28T19:12:00.138Z,5.17
2019-02-28T19:15:12.065Z,5.20
2019-02-28T19:17:59.684Z,5.17
2019-02-28T19:20:38.711Z,5.15
2019-02-28T19:23:23.389Z,5.16
2019-02-28T19:27:04.323Z,5.13
2019-02-28T19:30:40.565Z,5.13
2019-02-28T19:33:33.297Z,5.12
2019-02-28T19:36:21.359Z,5.07
2019-02-28T19:38:54.403Z,5.02
2019-02-28T19:41:48.647Z,4.98
2019-02-28T19:45:17.630Z,4.91
2019-02-28T20:13:00.796Z,4.78
2019-02-28T20:14:47.970Z,4.15
2019-02-28T20:20:33.377Z,3.98
2019-02-28T20:23:09.619Z,4.01
2019-02-28T20:25:54.013Z,3.99
2019-02-28T20:28:28.077Z,4.00
2019-02-28T20:31:03.471Z,3.92
2019-02-28T20:36:44.681Z,3.78
2019-02-28T20:43:54.596Z,3.84
2019-02-28T20:48:04.160Z,3.91
2019-02-28T20:51:19.384Z,3.99
2019-02-28T20:54:27.324Z,4.04
2019-02-28T20:57:21.537Z,4.05
2019-02-28T21:00:09.984Z,4.07
2019-02-28T21:02:58.775Z,4.11
2019-02-28T21:05:42.266Z,4.15
2019-02-28T21:08:16.049Z,4.16
2019-02-28T21:10:49.313Z,4.15
2019-02-28T21:13:24.102Z,4.14
2019-02-28T21:15:57.234Z,4.07
2019-02-28T21:18:30.114Z,3.86
2019-02-28T21:21:03.117Z,3.65
2019-02-28T21:23:36.268Z,3.49
2019-02-28T21:26:09.247Z,3.45
2019-02-28T21:28:42.365Z,3.43
2019-02-28T21:31:16.508Z,3.45
2019-02-28T21:33:49.520Z,3.46
2019-02-28T21:36:22.945Z,3.38
2019-02-28T21:38:55.935Z,3.28
2019-02-28T21:41:31.237Z,3.22
2019-02-28T21:44:04.238Z,3.24
2019-02-28T21:46:37.443Z,3.15
2019-02-28T21:49:10.444Z,3.11
2019-02-28T21:51:43.534Z,3.06
2019-02-28T21:54:16.432Z,2.97
2019-02-28T21:56:49.733Z,2.88
2019-02-28T21:59:22.762Z,2.82
2019-02-28T22:01:56.905Z,2.77
2019-02-28T22:04:29.980Z,2.70
2019-02-28T22:07:02.965Z,2.68
2019-02-28T22:09:35.896Z,2.68
2019-02-28T22:12:09.764Z,2.69
2019-02-28T22:14:42.848Z,2.71
2019-02-28T22:17:15.807Z,2.65
2019-02-28T22:19:48.821Z,2.61
2019-02-28T22:22:21.949Z,2.63
2019-02-28T22:24:55.098Z,2.57
2019-02-28T22:27:28.120Z,2.59
2019-02-28T22:30:04.076Z,2.61
2019-02-28T22:32:45.819Z,2.71
2019-02-28T22:35:43.835Z,2.85
2019-02-28T22:38:16.959Z,2.89
2019-02-28T22:40:49.856Z,2.98
2019-02-28T22:43:23.054Z,3.04
2019-02-28T22:45:56.033Z,3.02
2019-02-28T22:48:29.039Z,3.04
2019-02-28T22:51:03.087Z,3.07
2019-02-28T22:53:35.948Z,3.12
2019-02-28T22:56:08.896Z,3.17
2019-02-28T22:58:41.928Z,3.23
2019-02-28T23:01:17.390Z,3.15
2019-02-28T23:03:50.364Z,3.14
2019-02-28T23:06:23.268Z,3.11
2019-02-28T23:08:56.247Z,3.13
2019-02-28T23:11:29.253Z,3.22
2019-02-28T23:14:02.117Z,3.32
2019-02-28T23:16:34.987Z,3.43
2019-02-28T23:19:08.046Z,3.55
2019-02-28T23:21:41.050Z,3.63
2019-02-28T23:24:13.904Z,3.71
2019-02-28T23:27:24.149Z,3.81
2019-02-28T23:31:00.823Z,3.89
2019-02-28T23:33:35.320Z,3.92
2019-02-28T23:36:08.289Z,3.99
2019-02-28T23:38:41.140Z,4.02
2019-02-28T23:41:14.036Z,4.04
2019-02-28T23:43:47.106Z,4.05
2019-02-28T23:46:20.149Z,4.08
2019-02-28T23:48:53.166Z,4.12
2019-02-28T23:51:28.966Z,4.14
2019-02-28T23:54:01.750Z,4.15
2019-02-28T23:56:34.755Z,4.14
2019-02-28T23:59:07.655Z,4.15
